Time;durP1;ratioP1;P1;durP2;ratioP2;P2;SDS_P1;SDS_P2;PMS_P1;PMS_P2;Temp;Humidity;BMP_temperature;BMP_pressure;BME280_temperature;BME280_humidity;BME280_pressure;Samples;Min_cycle;Max_cycle;Signal;HPM_P1;HPM_P2
2023/04/10 00:00:05;;;;;;;44.53;29.70;;;8.60;99.90;;;;;;5071652;28;20040;-68
2023/04/10 00:02:31;;;;;;;43.72;30.20;;;8.60;99.90;;;;;;5071886;28;20048;-69
2023/04/10 00:04:58;;;;;;;48.45;32.70;;;8.50;99.90;;;;;;5071373;28;20492;-68
2023/04/10 00:07:24;;;;;;;46.58;30.73;;;8.50;99.90;;;;;;5071710;28;20119;-69
2023/04/10 00:09:49;;;;;;;50.15;32.53;;;8.50;99.90;;;;;;5071680;28;20119;-69
2023/04/10 00:12:15;;;;;;;43.28;30.13;;;8.50;99.90;;;;;;5071688;28;20039;-68
2023/04/10 00:14:41;;;;;;;46.17;31.42;;;8.50;99.90;;;;;;5071405;28;20040;-68
2023/04/10 00:17:07;;;;;;;49.45;32.60;;;8.40;99.90;;;;;;5071998;28;20547;-68
2023/04/10 00:19:33;;;;;;;48.88;31.85;;;8.40;99.90;;;;;;5072093;28;20048;-68
2023/04/10 00:21:58;;;;;;;48.13;31.50;;;8.40;99.90;;;;;;5053991;28;20040;-69
2023/04/10 00:24:24;;;;;;;49.22;32.92;;;8.30;99.90;;;;;;5071383;28;20072;-69
2023/04/10 00:26:49;;;;;;;46.88;32.83;;;8.30;99.90;;;;;;5074309;28;20038;-68
2023/04/10 00:29:15;;;;;;;51.78;33.75;;;8.30;99.90;;;;;;5075341;28;20040;-68
2023/04/10 00:31:40;;;;;;;48.28;33.03;;;8.30;99.90;;;;;;5075705;28;20033;-68
2023/04/10 00:34:07;;;;;;;49.55;33.33;;;8.30;99.90;;;;;;5075387;28;20480;-69
2023/04/10 00:36:33;;;;;;;52.08;34.13;;;8.30;99.90;;;;;;5057430;28;20393;-68
2023/04/10 00:38:59;;;;;;;52.75;33.58;;;8.30;99.90;;;;;;5075345;28;20036;-68
2023/04/10 00:41:25;;;;;;;51.97;34.28;;;8.30;99.90;;;;;;5075248;28;20454;-68
2023/04/10 00:43:55;;;;;;;47.28;33.30;;;8.20;99.90;;;;;;5075051;28;20042;-68
2023/04/10 00:46:21;;;;;;;51.30;33.65;;;8.20;99.90;;;;;;5075189;28;20036;-68
2023/04/10 00:48:47;;;;;;;53.63;35.00;;;8.20;99.90;;;;;;5075329;28;20086;-68
2023/04/10 00:51:13;;;;;;;47.95;34.03;;;8.20;99.90;;;;;;5075049;28;20041;-69
2023/04/10 00:53:38;;;;;;;49.67;33.95;;;8.20;99.90;;;;;;5074938;28;20051;-68
2023/04/10 00:56:05;;;;;;;56.10;37.00;;;8.10;99.90;;;;;;5074897;28;20036;-68
2023/04/10 00:58:31;;;;;;;50.50;34.85;;;8.10;99.90;;;;;;5074845;28;20059;-69
2023/04/10 01:00:56;;;;;;;51.63;35.90;;;8.00;99.90;;;;;;5075082;28;20507;-68
2023/04/10 01:03:23;;;;;;;52.83;36.47;;;8.00;99.90;;;;;;5074722;28;20514;-68
2023/04/10 01:06:10;;;;;;;53.03;35.35;;;8.00;99.90;;;;;;5074639;28;20041;-68
2023/04/10 01:09:03;;;;;;;54.88;37.55;;;7.90;99.90;;;;;;5056757;28;20049;-68
2023/04/10 01:11:53;;;;;;;56.60;37.25;;;7.90;99.90;;;;;;5074916;28;20093;-68
2023/04/10 01:14:32;;;;;;;56.20;37.88;;;7.90;99.90;;;;;;5074538;28;20024;-68
2023/04/10 01:17:14;;;;;;;59.08;38.78;;;7.80;99.90;;;;;;5074365;28;20028;-68
2023/04/10 01:20:04;;;;;;;53.20;36.03;;;7.80;99.90;;;;;;5074778;28;20040;-68
2023/04/10 01:22:59;;;;;;;59.15;39.22;;;7.70;99.90;;;;;;5074470;28;20535;-68
2023/04/10 01:25:30;;;;;;;57.45;38.13;;;7.70;99.90;;;;;;5074063;28;20526;-68
2023/04/10 01:28:20;;;;;;;58.08;38.40;;;7.70;99.90;;;;;;5074287;28;20492;-69
2023/04/10 01:30:58;;;;;;;54.10;37.83;;;7.70;99.90;;;;;;5074516;28;20052;-69
2023/04/10 01:33:33;;;;;;;53.33;38.40;;;7.70;99.90;;;;;;5056424;28;20460;-68
2023/04/10 01:36:03;;;;;;;64.45;40.00;;;7.70;99.90;;;;;;5073731;28;20036;-68
2023/04/10 01:38:30;;;;;;;57.70;40.15;;;7.60;99.90;;;;;;5056221;28;20079;-68
2023/04/10 01:40:58;;;;;;;56.05;39.33;;;7.50;99.90;;;;;;5056263;28;20048;-69
2023/04/10 01:43:26;;;;;;;54.00;38.83;;;7.50;99.90;;;;;;5074019;28;20045;-68
2023/04/10 01:45:52;;;;;;;62.33;41.15;;;7.50;99.90;;;;;;5073899;28;20040;-68
2023/04/10 01:48:19;;;;;;;61.70;40.35;;;7.50;99.90;;;;;;5055985;28;20040;-68
2023/04/10 01:50:46;;;;;;;65.88;41.13;;;7.50;99.90;;;;;;5073965;28;20036;-69
2023/04/10 01:53:12;;;;;;;59.60;39.72;;;7.50;99.90;;;;;;5055924;28;20043;-68
2023/04/10 01:55:39;;;;;;;57.15;38.83;;;7.40;99.90;;;;;;5055698;28;20033;-68
2023/04/10 01:58:05;;;;;;;56.40;38.90;;;7.40;99.90;;;;;;5073994;28;20040;-68
2023/04/10 02:00:38;;;;;;;61.58;41.17;;;7.40;99.90;;;;;;5073848;28;20502;-68
2023/04/10 02:03:04;;;;;;;61.05;38.20;;;7.40;99.90;;;;;;5073895;28;20106;-68
2023/04/10 02:05:52;;;;;;;62.30;40.30;;;7.40;99.90;;;;;;5073620;28;20051;-68
2023/04/10 02:08:29;;;;;;;58.88;40.67;;;7.30;99.90;;;;;;5073722;28;20045;-68
2023/04/10 02:11:02;;;;;;;57.58;39.13;;;7.30;99.90;;;;;;5073666;28;20033;-68
2023/04/10 02:13:33;;;;;;;61.85;39.95;;;7.30;99.90;;;;;;5073501;28;20119;-68
2023/04/10 02:16:02;;;;;;;56.83;38.20;;;7.30;99.90;;;;;;5073441;28;20041;-68
2023/04/10 02:18:29;;;;;;;58.25;38.42;;;7.30;99.90;;;;;;5073642;28;20067;-68
2023/04/10 02:20:56;;;;;;;56.15;38.30;;;7.30;99.90;;;;;;5073493;28;20079;-68
2023/04/10 02:23:22;;;;;;;52.38;37.63;;;7.30;99.90;;;;;;5073318;28;20048;-68
2023/04/10 02:25:47;;;;;;;53.75;38.22;;;7.30;99.90;;;;;;5073045;28;20040;-68
2023/04/10 02:28:13;;;;;;;54.88;37.72;;;7.30;99.90;;;;;;5073389;28;20093;-68
2023/04/10 02:30:39;;;;;;;60.33;37.72;;;7.30;99.90;;;;;;5073383;28;20120;-68
2023/04/10 02:33:04;;;;;;;57.75;38.10;;;7.30;99.90;;;;;;5073190;28;20518;-68
2023/04/10 02:35:30;;;;;;;54.35;35.85;;;7.30;99.90;;;;;;5072922;28;20044;-68
2023/04/10 02:37:55;;;;;;;55.25;37.05;;;7.30;99.90;;;;;;5073071;28;20047;-68
2023/04/10 02:40:21;;;;;;;52.88;36.20;;;7.30;99.90;;;;;;5072899;28;20063;-68
2023/04/10 02:42:47;;;;;;;55.45;36.17;;;7.30;99.90;;;;;;5072907;28;20036;-68
2023/04/10 02:45:14;;;;;;;54.13;35.75;;;7.30;99.90;;;;;;5072615;28;20431;-68
2023/04/10 02:47:39;;;;;;;54.10;36.40;;;7.30;99.90;;;;;;5072358;28;20044;-68
2023/04/10 02:50:06;;;;;;;51.47;36.28;;;7.30;99.90;;;;;;5072432;28;20038;-68
2023/04/10 02:52:31;;;;;;;51.40;34.55;;;7.30;99.90;;;;;;5072756;28;20076;-68
2023/04/10 02:54:57;;;;;;;50.75;34.03;;;7.30;99.90;;;;;;5072240;28;20043;-68
2023/04/10 02:57:22;;;;;;;58.28;35.90;;;7.30;99.90;;;;;;5072745;28;20037;-68
2023/04/10 02:59:51;;;;;;;52.78;33.72;;;7.30;99.90;;;;;;5072783;28;20040;-68
2023/04/10 03:02:16;;;;;;;51.42;33.65;;;7.20;99.90;;;;;;5072544;28;20043;-68
2023/04/10 03:04:42;;;;;;;52.85;34.40;;;7.30;99.90;;;;;;5072222;28;20040;-68
2023/04/10 03:07:08;;;;;;;50.05;34.03;;;7.30;99.90;;;;;;5072297;28;20036;-68
2023/04/10 03:09:33;;;;;;;47.40;33.15;;;7.20;99.90;;;;;;5072311;28;20060;-68
2023/04/10 03:12:00;;;;;;;49.78;33.10;;;7.30;99.90;;;;;;5072350;28;20040;-68
2023/04/10 03:14:26;;;;;;;50.05;33.88;;;7.20;99.90;;;;;;5072143;28;20040;-68
2023/04/10 03:16:52;;;;;;;46.20;32.38;;;7.20;99.90;;;;;;5072311;28;20550;-68
2023/04/10 03:19:17;;;;;;;48.65;32.55;;;7.20;99.90;;;;;;5072265;28;20162;-68
2023/04/10 03:21:44;;;;;;;46.50;32.65;;;7.40;99.90;;;;;;5072045;28;20040;-68
2023/04/10 03:24:09;;;;;;;45.25;31.20;;;7.30;99.90;;;;;;5071703;28;20045;-68
2023/04/10 03:26:35;;;;;;;48.15;32.22;;;7.20;99.90;;;;;;5071788;28;20039;-68
2023/04/10 03:29:00;;;;;;;49.30;33.60;;;7.20;99.90;;;;;;5072191;28;20066;-68
2023/04/10 03:31:26;;;;;;;47.50;32.08;;;7.20;99.90;;;;;;5071963;28;20514;-68
2023/04/10 03:33:52;;;;;;;49.53;33.55;;;7.10;99.90;;;;;;5054020;28;20038;-68
2023/04/10 03:36:17;;;;;;;51.75;34.13;;;7.10;99.90;;;;;;5071728;28;20048;-68
2023/04/10 03:38:43;;;;;;;46.65;30.95;;;7.10;99.90;;;;;;5071920;28;20036;-68
2023/04/10 03:41:09;;;;;;;49.78;32.13;;;7.10;99.90;;;;;;5072145;28;20041;-68
2023/04/10 03:43:34;;;;;;;47.35;31.27;;;7.10;99.90;;;;;;5071858;28;20083;-68
2023/04/10 03:46:00;;;;;;;46.95;32.75;;;7.00;99.90;;;;;;5071752;28;20044;-68
2023/04/10 03:48:27;;;;;;;46.47;31.98;;;7.10;99.90;;;;;;5071819;28;20423;-68
2023/04/10 03:50:56;;;;;;;43.67;31.38;;;7.00;99.90;;;;;;5053883;28;20465;-68
2023/04/10 03:53:21;;;;;;;46.33;31.63;;;7.00;99.90;;;;;;5071498;28;20032;-68
2023/04/10 03:55:47;;;;;;;50.60;31.40;;;6.90;99.90;;;;;;5071105;28;20039;-69
2023/04/10 03:58:12;;;;;;;49.20;33.05;;;6.90;99.90;;;;;;5053886;28;20114;-69
2023/04/10 04:00:38;;;;;;;50.13;34.55;;;6.80;99.90;;;;;;5071494;28;20083;-68
2023/04/10 04:03:04;;;;;;;48.45;34.38;;;6.90;99.90;;;;;;5071683;28;20487;-69
2023/04/10 04:05:30;;;;;;;54.08;34.08;;;6.80;99.90;;;;;;5071432;28;20039;-68
2023/04/10 04:07:56;;;;;;;52.45;34.90;;;6.80;99.90;;;;;;5071604;28;20076;-68
2023/04/10 04:10:23;;;;;;;52.17;34.80;;;6.90;99.90;;;;;;5071889;28;20083;-68
2023/04/10 04:12:48;;;;;;;54.45;34.90;;;6.80;99.90;;;;;;5071658;28;20040;-68
2023/04/10 04:15:14;;;;;;;49.83;32.65;;;6.80;99.90;;;;;;5053273;28;20047;-68
2023/04/10 04:17:40;;;;;;;51.15;33.35;;;6.70;99.90;;;;;;5071791;28;20032;-68
2023/04/10 04:20:06;;;;;;;55.42;34.33;;;6.70;99.90;;;;;;5071446;28;20047;-68
2023/04/10 04:22:32;;;;;;;51.97;33.78;;;6.70;99.90;;;;;;5071349;28;20040;-68
2023/04/10 04:24:57;;;;;;;53.45;33.75;;;6.70;99.90;;;;;;5071281;28;20036;-68
2023/04/10 04:27:23;;;;;;;57.17;34.55;;;6.70;99.90;;;;;;5071492;28;20028;-68
2023/04/10 04:29:49;;;;;;;56.10;35.60;;;6.70;99.90;;;;;;5071381;28;20068;-68
2023/04/10 04:32:15;;;;;;;57.72;38.83;;;6.70;99.90;;;;;;5071496;28;20136;-68
2023/04/10 04:34:40;;;;;;;62.58;38.10;;;6.70;99.90;;;;;;5071043;28;20059;-68
2023/04/10 04:37:06;;;;;;;56.95;34.47;;;6.70;99.90;;;;;;5070992;28;20055;-68
2023/04/10 04:39:31;;;;;;;54.83;35.22;;;6.70;99.90;;;;;;5071553;28;20040;-68
2023/04/10 04:41:57;;;;;;;56.63;35.00;;;6.70;99.90;;;;;;5071406;28;20041;-68
2023/04/10 04:44:22;;;;;;;60.95;36.58;;;6.70;99.90;;;;;;5070883;28;20060;-68
2023/04/10 04:46:48;;;;;;;58.33;35.90;;;6.70;99.90;;;;;;5071139;28;20037;-68
2023/04/10 04:49:13;;;;;;;59.65;38.25;;;6.70;99.90;;;;;;5071072;28;20052;-68
2023/04/10 04:51:39;;;;;;;57.80;37.65;;;6.80;99.90;;;;;;5071063;28;20102;-68
2023/04/10 04:54:04;;;;;;;60.42;38.17;;;6.80;99.90;;;;;;5070723;28;20047;-68
2023/04/10 04:56:30;;;;;;;63.40;39.47;;;6.80;99.90;;;;;;5071153;28;20040;-68
2023/04/10 04:58:55;;;;;;;68.35;41.00;;;6.90;99.90;;;;;;5071137;28;20036;-68
2023/04/10 05:01:21;;;;;;;63.60;41.72;;;7.00;99.90;;;;;;5070479;28;20044;-68
2023/04/10 05:03:46;;;;;;;62.75;40.08;;;7.00;99.90;;;;;;5052847;28;20044;-68
2023/04/10 05:06:13;;;;;;;65.50;40.75;;;7.00;99.90;;;;;;5070695;28;20044;-68
2023/04/10 05:08:38;;;;;;;62.30;40.72;;;7.10;99.90;;;;;;5070977;28;20041;-68
2023/04/10 05:11:05;;;;;;;65.00;40.92;;;7.10;99.90;;;;;;5071051;28;20040;-68
2023/04/10 05:13:30;;;;;;;70.60;41.55;;;7.10;99.90;;;;;;5056645;28;20036;-69
2023/04/10 05:15:56;;;;;;;69.40;42.92;;;7.10;99.90;;;;;;5074451;28;20044;-68
2023/04/10 05:18:22;;;;;;;67.80;44.38;;;7.20;99.90;;;;;;5074560;28;20467;-68
2023/04/10 05:20:48;;;;;;;69.03;43.72;;;7.20;99.90;;;;;;5074467;28;20462;-68
2023/04/10 05:23:15;;;;;;;67.72;44.60;;;7.10;99.90;;;;;;5074266;28;20526;-68
2023/04/10 05:25:41;;;;;;;75.40;46.17;;;7.20;99.90;;;;;;5074194;28;20480;-69
2023/04/10 05:28:06;;;;;;;69.63;42.55;;;7.20;99.90;;;;;;5074490;28;20116;-68
2023/04/10 05:30:32;;;;;;;75.45;45.88;;;7.30;99.90;;;;;;5074356;28;20106;-68
2023/04/10 05:32:57;;;;;;;74.13;44.72;;;7.20;99.90;;;;;;5074219;28;20108;-68
2023/04/10 05:35:23;;;;;;;79.53;46.08;;;7.30;99.90;;;;;;5056079;28;20044;-68
2023/04/10 05:37:48;;;;;;;73.18;46.58;;;7.30;99.90;;;;;;5074384;28;20036;-68
2023/04/10 05:40:14;;;;;;;75.25;47.70;;;7.30;99.90;;;;;;5056505;28;20040;-68
2023/04/10 05:42:40;;;;;;;78.35;46.42;;;7.30;99.90;;;;;;5074249;28;20040;-68
2023/04/10 05:45:06;;;;;;;73.88;45.00;;;7.40;99.90;;;;;;5073576;28;20127;-68
2023/04/10 05:47:32;;;;;;;69.85;46.72;;;7.40;99.90;;;;;;5056304;28;20036;-68
2023/04/10 05:49:57;;;;;;;74.70;46.38;;;7.40;99.90;;;;;;5074030;28;20560;-68
2023/04/10 05:52:23;;;;;;;76.57;47.30;;;7.50;99.90;;;;;;5073984;28;20037;-68
2023/04/10 05:54:48;;;;;;;72.70;48.40;;;7.50;99.90;;;;;;5073491;28;20131;-68
2023/04/10 05:57:14;;;;;;;77.47;47.38;;;7.50;99.90;;;;;;5073766;28;20083;-68
2023/04/10 05:59:40;;;;;;;77.80;49.35;;;7.50;99.90;;;;;;5073855;28;20051;-68
2023/04/10 06:02:06;;;;;;;80.43;47.05;;;7.60;99.90;;;;;;5055701;28;20044;-68
2023/04/10 06:04:31;;;;;;;72.32;47.47;;;7.70;99.90;;;;;;5073234;28;20036;-68
2023/04/10 06:06:57;;;;;;;74.82;46.83;;;7.80;99.90;;;;;;5073663;28;20219;-68
2023/04/10 06:09:22;;;;;;;73.57;46.63;;;7.90;99.90;;;;;;5055514;28;20052;-68
2023/04/10 06:11:48;;;;;;;70.07;48.28;;;8.00;99.90;;;;;;5073592;28;20043;-68
2023/04/10 06:14:14;;;;;;;76.88;46.38;;;8.10;99.90;;;;;;5073310;28;20033;-68
2023/04/10 06:16:39;;;;;;;76.80;48.53;;;8.30;99.90;;;;;;5073296;28;20102;-68
2023/04/10 06:19:05;;;;;;;74.00;46.70;;;8.40;99.90;;;;;;5073405;28;20045;-68
2023/04/10 06:21:31;;;;;;;70.50;46.10;;;8.60;99.90;;;;;;5072974;28;20072;-68
2023/04/10 06:23:56;;;;;;;75.13;49.08;;;8.80;99.90;;;;;;5072288;28;20037;-68
2023/04/10 06:26:23;;;;;;;74.38;48.30;;;9.00;99.90;;;;;;5073190;28;20036;-68
2023/04/10 06:28:49;;;;;;;69.97;46.10;;;9.20;99.90;;;;;;5073371;28;20044;-68
2023/04/10 06:31:20;;;;;;;70.65;45.88;;;9.40;99.90;;;;;;5073176;28;20110;-68
2023/04/10 06:33:48;;;;;;;74.13;47.33;;;9.40;99.90;;;;;;5073043;28;20039;-68
2023/04/10 06:36:13;;;;;;;69.50;46.88;;;9.50;99.90;;;;;;5073071;28;20037;-68
2023/04/10 06:38:39;;;;;;;73.28;46.25;;;9.70;99.90;;;;;;5073236;28;20472;-68
2023/04/10 06:41:05;;;;;;;66.05;45.60;;;9.70;99.90;;;;;;5072999;28;20559;-68
2023/04/10 06:43:33;;;;;;;70.32;46.95;;;9.90;99.90;;;;;;5072694;28;20044;-68
2023/04/10 06:45:58;;;;;;;73.10;45.38;;;10.00;99.90;;;;;;5072682;28;20085;-68
2023/04/10 06:48:24;;;;;;;67.60;44.90;;;10.00;99.90;;;;;;5072746;28;20040;-68
2023/04/10 06:50:50;;;;;;;67.65;46.63;;;10.00;99.90;;;;;;5072717;28;20044;-67
2023/04/10 06:53:15;;;;;;;71.80;47.00;;;10.00;99.90;;;;;;5072680;28;20051;-68
2023/04/10 06:55:41;;;;;;;68.38;43.70;;;10.00;99.90;;;;;;5054825;28;20044;-68
2023/04/10 06:58:06;;;;;;;71.35;46.70;;;10.00;99.90;;;;;;5072578;28;20047;-68
2023/04/10 07:00:32;;;;;;;73.82;46.63;;;10.10;99.90;;;;;;5072532;28;20051;-68
2023/04/10 07:02:57;;;;;;;75.00;48.05;;;10.20;99.90;;;;;;5054501;28;20040;-68
2023/04/10 07:05:23;;;;;;;75.65;48.15;;;10.30;99.90;;;;;;5072427;28;20492;-68
2023/04/10 07:07:49;;;;;;;73.20;48.03;;;10.40;99.90;;;;;;5072522;28;20515;-68
2023/04/10 07:10:15;;;;;;;75.13;46.20;;;10.60;99.90;;;;;;5054475;28;20413;-68
2023/04/10 07:12:41;;;;;;;74.65;46.70;;;10.80;99.90;;;;;;5071857;28;20123;-68
2023/04/10 07:15:07;;;;;;;71.88;44.13;;;10.80;99.90;;;;;;5064230;28;20040;-68
2023/04/10 07:17:33;;;;;;;67.75;44.42;;;10.90;99.90;;;;;;5053936;28;20048;-68
2023/04/10 07:19:58;;;;;;;72.47;43.55;;;10.80;99.90;;;;;;5072271;28;20028;-68
2023/04/10 07:22:24;;;;;;;68.30;42.65;;;10.80;99.90;;;;;;5071851;28;20042;-68
2023/04/10 07:24:50;;;;;;;61.50;41.47;;;10.80;99.90;;;;;;5071697;28;20047;-68
2023/04/10 07:27:16;;;;;;;67.90;42.13;;;10.90;99.90;;;;;;5071755;28;20043;-68
2023/04/10 07:29:41;;;;;;;62.13;40.35;;;11.00;99.90;;;;;;5063540;28;20544;-68
2023/04/10 07:32:07;;;;;;;64.45;40.72;;;11.20;99.90;;;;;;5071790;28;20033;-68
2023/04/10 07:34:32;;;;;;;63.70;40.92;;;11.30;99.90;;;;;;5070798;28;20086;-68
2023/04/10 07:36:58;;;;;;;59.10;37.63;;;11.50;99.90;;;;;;5071708;28;20075;-68
2023/04/10 07:39:24;;;;;;;59.22;38.17;;;11.50;99.90;;;;;;5072071;28;20075;-68
2023/04/10 07:41:51;;;;;;;58.80;37.45;;;11.50;99.90;;;;;;5072002;28;20044;-67
2023/04/10 07:44:17;;;;;;;60.85;39.08;;;11.70;99.90;;;;;;5071562;28;20040;-68
2023/04/10 07:46:43;;;;;;;56.83;37.03;;;11.80;99.90;;;;;;5071157;28;20097;-68
2023/04/10 07:49:08;;;;;;;54.13;35.30;;;11.90;99.50;;;;;;5071937;28;20041;-68
2023/04/10 07:51:34;;;;;;;54.92;35.05;;;12.10;99.00;;;;;;5071205;28;20029;-68
2023/04/10 07:54:00;;;;;;;56.67;35.28;;;12.30;98.70;;;;;;5071088;28;20063;-68
2023/04/10 07:56:25;;;;;;;60.35;34.08;;;12.50;98.10;;;;;;5071558;28;20507;-68
2023/04/10 07:58:51;;;;;;;53.15;34.13;;;12.80;97.80;;;;;;5071771;28;20404;-68
2023/04/10 08:01:16;;;;;;;54.53;35.22;;;13.00;97.10;;;;;;5053881;28;20492;-68
2023/04/10 08:03:43;;;;;;;52.92;33.78;;;13.30;96.40;;;;;;5071730;28;20515;-68
2023/04/10 08:06:10;;;;;;;50.97;32.28;;;13.40;95.20;;;;;;5071158;28;20036;-68
2023/04/10 08:08:40;;;;;;;51.30;30.95;;;13.60;94.40;;;;;;5071060;28;20090;-68
2023/04/10 08:11:24;;;;;;;50.10;31.05;;;13.80;93.90;;;;;;5071158;28;20043;-68
2023/04/10 08:13:51;;;;;;;55.40;32.55;;;13.90;93.50;;;;;;5069585;28;20043;-68
2023/04/10 08:16:23;;;;;;;44.10;30.10;;;14.10;93.30;;;;;;5071401;28;20471;-68
2023/04/10 08:18:49;;;;;;;47.40;30.97;;;14.10;91.70;;;;;;5071735;28;20044;-68
2023/04/10 08:21:14;;;;;;;43.13;29.10;;;14.20;91.30;;;;;;5071555;28;20041;-68
2023/04/10 08:23:40;;;;;;;44.20;28.85;;;14.30;91.00;;;;;;5071438;28;20032;-69
2023/04/10 08:26:06;;;;;;;41.40;28.10;;;14.40;91.00;;;;;;5071178;28;20036;-68
2023/04/10 08:28:31;;;;;;;42.25;26.10;;;14.40;90.90;;;;;;5071252;28;20701;-68
2023/04/10 08:30:57;;;;;;;41.15;26.48;;;14.30;90.50;;;;;;5071441;28;20072;-68
2023/04/10 08:33:22;;;;;;;35.42;25.30;;;14.50;90.30;;;;;;5071378;28;20036;-68
2023/04/10 08:35:48;;;;;;;35.13;23.83;;;14.30;88.60;;;;;;5071221;28;20040;-68
2023/04/10 08:38:14;;;;;;;38.17;23.95;;;14.40;89.40;;;;;;5071325;28;20043;-68
2023/04/10 08:40:39;;;;;;;35.45;24.35;;;14.50;89.30;;;;;;5071343;28;20044;-68
2023/04/10 08:43:05;;;;;;;38.42;25.33;;;14.60;89.20;;;;;;5071263;28;20047;-68
2023/04/10 08:45:30;;;;;;;38.47;24.45;;;14.80;88.70;;;;;;5071214;28;20464;-68
2023/04/10 08:48:01;;;;;;;33.85;23.30;;;14.90;87.70;;;;;;5074399;28;20411;-68
2023/04/10 08:50:30;;;;;;;33.53;23.65;;;14.90;86.50;;;;;;5075242;28;20044;-68
2023/04/10 08:52:58;;;;;;;36.20;24.90;;;14.90;86.50;;;;;;5075067;28;20097;-69
2023/04/10 08:55:25;;;;;;;32.85;22.88;;;15.00;85.30;;;;;;5074667;28;20182;-70
2023/04/10 08:57:51;;;;;;;31.45;22.48;;;15.20;85.30;;;;;;5074921;28;20519;-68
2023/04/10 09:00:17;;;;;;;32.47;21.42;;;15.30;85.30;;;;;;5057375;28;20044;-69
2023/04/10 09:02:42;;;;;;;30.25;21.67;;;15.30;85.50;;;;;;5074975;28;20047;-68
2023/04/10 09:05:11;;;;;;;29.55;21.40;;;15.20;84.80;;;;;;5074820;28;20063;-68
2023/04/10 09:07:36;;;;;;;33.75;22.08;;;15.10;83.60;;;;;;5074977;28;20496;-68
2023/04/10 09:10:02;;;;;;;27.38;19.35;;;15.10;83.30;;;;;;5056881;28;20047;-68
2023/04/10 09:12:27;;;;;;;31.17;19.60;;;15.30;83.80;;;;;;5056675;28;20040;-68
2023/04/10 09:14:56;;;;;;;28.00;18.88;;;15.30;82.10;;;;;;5056577;28;20072;-68
2023/04/10 09:17:22;;;;;;;24.27;18.98;;;15.40;80.70;;;;;;5073887;28;20036;-69
2023/04/10 09:19:51;;;;;;;26.10;18.55;;;15.40;81.00;;;;;;5056172;28;20052;-68
2023/04/10 09:22:17;;;;;;;30.92;19.73;;;15.30;79.50;;;;;;5073965;28;20040;-68
2023/04/10 09:24:46;;;;;;;27.40;18.83;;;15.50;79.80;;;;;;5073769;28;20572;-68
2023/04/10 09:27:38;;;;;;;28.40;18.98;;;15.60;79.40;;;;;;5073440;28;20105;-68
2023/04/10 09:30:07;;;;;;;27.52;18.75;;;15.80;78.50;;;;;;5071934;28;20049;-69
2023/04/10 09:32:48;;;;;;;24.63;19.20;;;16.00;79.20;;;;;;5073842;28;20101;-68
2023/04/10 09:35:14;;;;;;;27.33;19.58;;;16.10;77.50;;;;;;5074232;28;20040;-69
2023/04/10 09:37:43;;;;;;;28.90;19.75;;;16.20;78.20;;;;;;5039565;28;20423;-69
2023/04/10 09:40:23;;;;;;;26.35;18.60;;;16.10;77.60;;;;;;5074032;28;20040;-68
2023/04/10 09:42:49;;;;;;;26.77;19.33;;;15.90;75.70;;;;;;5055422;28;20039;-69
2023/04/10 09:45:19;;;;;;;28.95;20.00;;;15.80;76.60;;;;;;5073506;28;20036;-68
2023/04/10 09:48:06;;;;;;;26.48;18.38;;;15.70;77.10;;;;;;5074000;28;20048;-69
2023/04/10 09:50:36;;;;;;;28.98;19.88;;;15.60;76.40;;;;;;5056035;28;20051;-68
2023/04/10 09:53:02;;;;;;;27.13;17.58;;;15.80;77.30;;;;;;5055915;28;20115;-70
2023/04/10 09:55:28;;;;;;;28.33;19.73;;;15.80;76.50;;;;;;5073675;28;20159;-68
2023/04/10 09:57:55;;;;;;;28.35;20.70;;;15.90;76.90;;;;;;5073482;28;20128;-69
2023/04/10 10:00:20;;;;;;;26.88;18.02;;;16.00;77.30;;;;;;5074095;28;20408;-69
2023/04/10 10:02:48;;;;;;;25.67;18.00;;;16.10;76.60;;;;;;5073843;28;20039;-68
2023/04/10 10:05:14;;;;;;;24.90;16.92;;;16.00;74.80;;;;;;5073657;28;20045;-68
2023/04/10 10:07:40;;;;;;;27.40;18.67;;;16.00;74.70;;;;;;5055713;28;20090;-69
2023/04/10 10:10:07;;;;;;;24.48;18.67;;;16.00;74.90;;;;;;5073719;28;20040;-68
2023/04/10 10:12:49;;;;;;;27.08;18.17;;;16.10;74.90;;;;;;5073404;28;20127;-68
2023/04/10 10:15:34;;;;;;;24.17;16.70;;;16.10;74.90;;;;;;5073519;28;20036;-68
2023/04/10 10:18:21;;;;;;;22.20;16.23;;;16.10;73.80;;;;;;5073601;28;20089;-67
2023/04/10 10:20:49;;;;;;;23.80;17.15;;;16.10;74.40;;;;;;5055518;28;20488;-68
2023/04/10 10:23:14;;;;;;;24.45;17.30;;;16.10;73.80;;;;;;5073511;28;20036;-68
2023/04/10 10:25:42;;;;;;;26.17;17.48;;;16.10;74.70;;;;;;5073023;28;20040;-68
2023/04/10 10:28:11;;;;;;;22.70;16.90;;;16.20;75.30;;;;;;5073378;28;20083;-68
2023/04/10 10:30:37;;;;;;;21.27;15.77;;;16.20;74.70;;;;;;5073295;28;20125;-68
2023/04/10 10:33:06;;;;;;;26.85;17.85;;;16.30;74.30;;;;;;5073118;28;20115;-68
2023/04/10 10:35:34;;;;;;;22.20;16.27;;;16.30;74.30;;;;;;5072841;28;20047;-68
2023/04/10 10:38:01;;;;;;;21.30;15.68;;;16.30;73.70;;;;;;5073305;28;20128;-68
2023/04/10 10:40:31;;;;;;;20.45;14.40;;;16.30;73.60;;;;;;5073101;28;20476;-68
2023/04/10 10:43:17;;;;;;;19.02;13.63;;;16.40;73.20;;;;;;5072822;28;20036;-68
2023/04/10 10:45:56;;;;;;;21.02;14.27;;;16.40;72.20;;;;;;5072781;28;20491;-68
2023/04/10 10:48:22;;;;;;;18.33;12.57;;;16.40;72.20;;;;;;5073041;28;20125;-68
2023/04/10 10:50:57;;;;;;;20.08;13.45;;;16.30;72.20;;;;;;5073069;28;20124;-68
2023/04/10 10:53:34;;;;;;;15.80;11.60;;;16.30;72.30;;;;;;5072761;28;20043;-68
2023/04/10 10:56:19;;;;;;;14.70;10.88;;;16.30;71.00;;;;;;5072644;28;20124;-68
2023/04/10 10:58:50;;;;;;;13.77;10.85;;;16.30;70.50;;;;;;5072632;28;20040;-68
2023/04/10 11:01:16;;;;;;;14.98;10.45;;;16.20;70.70;;;;;;5072644;28;20492;-68
2023/04/10 11:03:43;;;;;;;12.77;9.80;;;16.20;71.10;;;;;;5072290;28;20086;-68
2023/04/10 11:06:11;;;;;;;11.43;9.40;;;16.20;71.10;;;;;;5071862;28;20048;-68
2023/04/10 11:08:47;;;;;;;12.68;10.07;;;16.20;70.10;;;;;;5068810;28;20086;-68
2023/04/10 11:11:22;;;;;;;13.68;9.75;;;16.10;69.40;;;;;;5072336;28;20111;-68
2023/04/10 11:13:50;;;;;;;11.55;9.10;;;16.10;69.80;;;;;;5072074;28;20103;-68
2023/04/10 11:16:17;;;;;;;14.07;9.00;;;16.20;70.80;;;;;;5072112;28;20044;-68
2023/04/10 11:18:46;;;;;;;14.40;8.63;;;16.20;71.30;;;;;;5072223;28;20131;-68
2023/04/10 11:21:15;;;;;;;12.45;8.82;;;16.20;71.40;;;;;;5072225;28;20069;-67
2023/04/10 11:23:50;;;;;;;9.27;8.00;;;16.30;70.70;;;;;;5072234;28;20033;-68
2023/04/10 11:26:35;;;;;;;10.23;7.88;;;16.30;71.60;;;;;;5072011;28;20053;-68
2023/04/10 11:29:01;;;;;;;12.15;7.65;;;16.50;72.60;;;;;;5072170;28;20046;-68
2023/04/10 11:31:27;;;;;;;12.00;8.15;;;16.50;72.00;;;;;;5072158;28;20123;-68
2023/04/10 11:33:59;;;;;;;11.30;8.32;;;16.50;71.20;;;;;;5071896;28;20159;-68
2023/04/10 11:36:26;;;;;;;10.32;8.35;;;16.50;70.70;;;;;;5072079;28;20065;-68
2023/04/10 11:38:59;;;;;;;10.95;8.23;;;16.50;70.40;;;;;;5037629;28;20075;-67
2023/04/10 11:41:30;;;;;;;11.13;8.43;;;16.40;69.80;;;;;;5072076;28;20052;-67
2023/04/10 11:44:01;;;;;;;10.95;8.27;;;16.40;69.50;;;;;;5054019;28;20492;-67
2023/04/10 11:46:27;;;;;;;10.90;7.60;;;16.30;69.00;;;;;;5071670;28;20043;-68
2023/04/10 11:49:04;;;;;;;9.98;7.18;;;16.30;70.20;;;;;;5071962;28;20051;-68
2023/04/10 11:51:30;;;;;;;13.13;7.07;;;16.40;70.80;;;;;;5054029;28;20040;-68
2023/04/10 11:54:11;;;;;;;9.73;6.97;;;16.40;71.30;;;;;;5053756;28;20037;-68
2023/04/10 11:56:41;;;;;;;8.15;7.03;;;16.50;70.30;;;;;;5053881;28;20376;-68
2023/04/10 11:59:13;;;;;;;8.57;6.57;;;16.50;70.00;;;;;;5071777;28;20049;-68
2023/04/10 12:01:39;;;;;;;10.13;7.13;;;16.50;69.90;;;;;;5071897;28;20051;-68
2023/04/10 12:04:17;;;;;;;9.18;6.75;;;16.50;70.10;;;;;;5052983;28;20045;-68
2023/04/10 12:06:47;;;;;;;8.80;6.65;;;16.50;69.90;;;;;;5069720;28;20036;-68
2023/04/10 12:09:15;;;;;;;9.02;6.68;;;16.50;70.30;;;;;;5070980;28;20614;-68
2023/04/10 12:11:52;;;;;;;7.00;5.70;;;16.60;70.70;;;;;;5071401;28;20039;-67
2023/04/10 12:14:19;;;;;;;7.20;5.05;;;16.60;69.80;;;;;;5068957;28;20085;-68
2023/04/10 12:16:45;;;;;;;7.65;5.57;;;16.70;69.80;;;;;;5071097;28;20055;-68
2023/04/10 12:19:12;;;;;;;8.73;6.40;;;16.80;69.90;;;;;;5036613;28;20119;-67
2023/04/10 12:21:40;;;;;;;7.97;5.82;;;16.80;69.30;;;;;;5073933;28;20050;-68
2023/04/10 12:24:06;;;;;;;7.40;5.70;;;17.00;69.30;;;;;;5057304;28;20059;-67
2023/04/10 12:26:31;;;;;;;7.00;4.85;;;17.00;69.00;;;;;;5075185;28;20516;-68
2023/04/10 12:28:57;;;;;;;6.90;4.70;;;17.00;67.80;;;;;;5075205;28;20115;-67
2023/04/10 12:31:33;;;;;;;7.15;5.50;;;17.10;67.90;;;;;;5075219;28;20029;-68
2023/04/10 12:34:00;;;;;;;6.32;4.95;;;17.30;67.30;;;;;;5072806;28;20039;-68
2023/04/10 12:36:28;;;;;;;8.90;4.85;;;17.30;66.70;;;;;;5075081;28;20044;-68